• Join FlightAware (Why Join?)
  • Login
  • US Flag 
09:08PM EDT


 

Airport Tracker/Info


-or-


 

Live Flight TrackerFlight Track Log ✈ N960DL ✈ 30-Apr-2013 ✈ KATL - KPVD

Flight Track Log - Related Links

Times and Time Zones

All times are in EDT time to prevent confusion due to time zone crossing. See the N960DL flight status page for this flight to view local times or setup timezone preferences in your user account.

Time Position Orientation Groundspeed Altitude Reporting Facility
EDT Latitude Longitude Course Direction KTS MPH feet Rate Location/Type
09:36AM 33.6333 -84.3667 53° Northeast 207 238 2,700  Level Atlanta TRACON
09:37AM 33.6333 -84.3000 90° East 254 292 4,600 2,580 Climbing Atlanta TRACON
09:38AM 33.6333 -84.1833 90° East 282 325 7,900 2,520 Climbing Atlanta TRACON
09:39AM 33.8079 -83.8815 54° Northeast  Level FlightAware Approximate
09:39AM 33.6461 -84.0936 80° East 310 357 10,200  Level Atlanta Center
09:40AM 33.8807 -83.7647 48° Northeast  Level FlightAware Approximate
09:40AM 33.7067 -84.0064 50° Northeast 310 357 11,200  Level Atlanta Center
09:41AM 33.9574 -83.6515 53° Northeast  Level FlightAware Approximate
09:41AM 33.7836 -83.9089 46° Northeast 367 422 13,600  Level Atlanta Center
09:42AM 34.0303 -83.5344 53° Northeast  Level FlightAware Approximate
09:42AM 33.8628 -83.8061 47° Northeast 399 459 16,100  Level Atlanta Center
09:43AM 33.9400 -83.7008 49° Northeast 415 478 18,200 1,920 Climbing Atlanta Center
09:44AM 34.0167 -83.5828 52° Northeast 436 502 20,000 1,800 Climbing Atlanta Center
09:45AM 34.0892 -83.4619 54° Northeast 444 511 21,900 960 Climbing Atlanta Center
09:46AM 34.1681 -83.3383 52° Northeast 454 522 22,000 180 Climbing Atlanta Center
09:47AM 34.2528 -83.2044 53° Northeast 454 522 22,300 900 Climbing Atlanta Center
09:48AM 34.3289 -83.0803 53° Northeast 461 531 23,900 1,860 Climbing Atlanta Center
09:49AM 34.4053 -82.9561 53° Northeast 461 531 26,100 1,800 Climbing Atlanta Center
09:50AM 34.4833 -82.8317 53° Northeast 461 531 27,600 1,440 Climbing Atlanta Center
09:51AM 34.5408 -82.7300 56° Northeast 461 531 29,000 1,320 Climbing Atlanta Center
09:52AM 34.6186 -82.6103 52° Northeast 454 522 30,300 960 Climbing Atlanta Center
09:53AM 34.6983 -82.4775 54° Northeast 449 517 31,000 300 Climbing Atlanta Center
09:54AM 34.7761 -82.3519 53° Northeast 449 517 31,000  Level Atlanta Center
09:55AM 34.8514 -82.2264 54° Northeast 456 525 31,000  Level Atlanta Center
09:56AM 34.9289 -82.1031 53° Northeast 456 525 31,000  Level Atlanta Center
09:57AM 35.0019 -81.9822 54° Northeast 451 519 31,000  Level Atlanta Center
09:58AM 35.0728 -81.8536 56° Northeast 451 519 31,000  Level Atlanta Center
09:59AM 35.1436 -81.7222 57° Northeast 458 527 31,000  Level Atlanta Center
10:00AM 35.2139 -81.5906 57° Northeast 463 533 31,000  Level Atlanta Center
10:01AM 35.2867 -81.4664 54° Northeast 458 527 31,000  Level Atlanta Center
10:02AM 35.3631 -81.3417 53° Northeast 458 527 31,000  Level Atlanta Center
10:03AM 35.4397 -81.2169 53° Northeast 453 521 31,000  Level Atlanta Center
10:04AM 35.5375 -81.1192 39° Northeast 447 514 31,000  Level Atlanta Center
10:05AM 35.6483 -81.0386 31° Northeast 454 522 31,000  Level Atlanta Center
10:06AM 35.7286 -80.9178 51° Northeast 448 516 31,000  Level Atlanta Center
10:07AM 35.8047 -80.7947 53° Northeast 447 514 31,000  Level Atlanta Center
10:08AM 35.8806 -80.6686 53° Northeast 453 521 31,000  Level Atlanta Center
10:09AM 35.9600 -80.5292 55° Northeast 453 521 31,000  Level Atlanta Center
10:12AM 36.1103 -80.2764 54° Northeast 460 529 31,000  Level Washington Center
10:13AM 36.1861 -80.1522 53° Northeast 460 529 31,000  Level Washington Center
10:14AM 36.2706 -80.0156 53° Northeast 454 522 31,000  Level Washington Center
10:15AM 36.3439 -79.8908 54° Northeast 449 517 31,000  Level Washington Center
10:16AM 36.4128 -79.7706 55° Northeast 454 522 31,000  Level Washington Center
10:17AM 36.4858 -79.6453 54° Northeast 454 522 31,000  Level Washington Center
10:18AM 36.5611 -79.5147 54° Northeast 459 528 31,000  Level Washington Center
10:19AM 36.6408 -79.3739 55° Northeast 459 528 31,000  Level Washington Center
10:20AM 36.7158 -79.2428 54° Northeast 464 534 31,000  Level Washington Center
10:21AM 36.7908 -79.1114 54° Northeast 464 534 31,000  Level Washington Center
10:22AM 36.8633 -78.9850 54° Northeast 464 534 31,000  Level Washington Center
10:23AM 36.9292 -78.8658 55° Northeast 459 528 31,000  Level Washington Center
10:24AM 37.0058 -78.7364 53° Northeast 459 528 31,000  Level Washington Center
10:25AM 37.0781 -78.6039 56° Northeast 459 528 31,000  Level Washington Center
10:26AM 37.1608 -78.4561 55° Northeast 464 534 31,000  Level Washington Center
10:27AM 37.2389 -78.3258 53° Northeast 459 528 31,000  Level Washington Center
10:28AM 37.3231 -78.2086 48° Northeast 459 528 31,000  Level Washington Center
10:29AM 37.4044 -78.1094 44° Northeast 447 514 31,000  Level Washington Center
10:30AM 37.4964 -77.9975 44° Northeast 447 514 31,000  Level Washington Center
10:31AM 37.5883 -77.8850 44° Northeast 453 521 31,000  Level Washington Center
10:32AM 37.6800 -77.7750 44° Northeast 453 521 31,000  Level Washington Center
10:33AM 37.7739 -77.6594 44° Northeast 453 521 31,000  Level Washington Center
10:34AM 37.8675 -77.5436 44° Northeast 458 527 31,000  Level Washington Center
10:35AM 37.9611 -77.4303 44° Northeast 458 527 31,000  Level Washington Center
10:36AM 38.0525 -77.3189 44° Northeast 458 527 31,000  Level Washington Center
10:37AM 38.1458 -77.2022 44° Northeast 458 527 31,000  Level Washington Center
10:38AM 38.2411 -77.0800 45° Northeast 472 543 31,000  Level Washington Center
10:39AM 38.3322 -76.9653 45° Northeast 465 535 31,000  Level Washington Center
10:40AM 38.4253 -76.8478 45° Northeast 460 529 31,000  Level Washington Center
10:41AM 38.5181 -76.7328 44° Northeast 460 529 31,000  Level Washington Center
10:42AM 38.6089 -76.6119 46° Northeast 460 529 31,000  Level Washington Center
10:43AM 38.7014 -76.4961 44° Northeast 460 529 31,000  Level Washington Center
10:44AM 38.7939 -76.3800 44° Northeast 460 529 31,000  Level Washington Center
10:45AM 38.8864 -76.2583 46° Northeast 460 529 31,000  Level Washington Center
10:46AM 38.9914 -76.1311 43° Northeast 460 529 31,000  Level Washington Center
10:47AM 39.0814 -76.0114 46° Northeast 465 535 31,000  Level Washington Center
10:48AM 39.1756 -75.8914 45° Northeast 460 529 31,000  Level Washington Center
10:49AM 39.2653 -75.7739 45° Northeast 460 529 31,000 -60 Level Washington Center
10:50AM 39.3572 -75.6533 45° Northeast 460 529 30,900  Descending Washington Center
10:51AM 39.4469 -75.5325 46° Northeast 460 529 31,000  Climbing Washington Center
10:53AM 39.6264 -75.2964 45° Northeast 482 555 31,000  Level New York Center
10:54AM 39.7186 -75.1753 45° Northeast 482 555 31,000  Level New York Center
10:55AM 39.8067 -75.0486 48° Northeast 476 548 31,000  Level New York Center
10:56AM 39.9006 -74.9272 45° Northeast 483 556 31,000  Level New York Center
10:57AM 39.9861 -74.8047 48° Northeast 468 539 31,000  Level New York Center
10:58AM 40.0828 -74.6639 48° Northeast 468 539 31,000  Level New York Center
10:59AM 40.1372 -74.5286 62° Northeast 477 549 31,000  Level New York Center
11:00AM 40.2031 -74.3528 64° Northeast 486 559 31,000 -540 Level New York Center
11:01AM 40.2619 -74.1981 63° Northeast 481 554 30,000 -1,020 Descending New York Center
11:03AM 40.3803 -73.8758 64° Northeast 494 568 27,900 -960 Descending Boston Center
11:04AM 40.4383 -73.7189 64° Northeast 489 563 27,000 -480 Descending Boston Center
11:05AM 40.4900 -73.5561 67° East 483 556 27,000  Level Boston Center
11:06AM 40.5478 -73.3986 64° Northeast 478 550 27,000 -480 Level Boston Center
11:07AM 40.6011 -73.2383 66° East 478 550 26,100 -960 Descending Boston Center
11:08AM 40.6564 -73.0803 65° Northeast 478 550 25,100 -1,020 Descending Boston Center
11:09AM 40.7092 -72.9219 66° East 473 544 24,100 -1,200 Descending Boston Center
11:10AM 40.7661 -72.7717 63° Northeast 468 539 22,800 -1,560 Descending Boston Center
11:11AM 40.8164 -72.6239 66° East 455 524 21,000 -2,160 Descending Boston Center
11:12AM 40.8728 -72.4567 66° East 450 518 18,500 -2,340 Descending Boston Center
11:12AM 40.9125 -72.3522 63° Northeast 440 506 17,000 -2,040 Descending Boston Center
11:13AM 40.9206 -72.3111 75° East 444 511 16,500 -2,280 Descending Boston Center
11:14AM 40.9664 -72.1761 66° East 426 490 14,200 -2,160 Descending Boston Center
11:15AM 41.0117 -72.0439 66° East 405 466 12,200 -1,740 Descending Boston Center
11:16AM 41.0550 -71.9172 66° East 389 448 10,800 -960 Descending Boston Center
11:17AM 41.1272 -71.8008 50° Northeast 370 426 10,100 -660 Descending Boston Center
11:18AM 41.1850 -71.7119 49° Northeast 312 359 9,400 -1,020 Descending Boston Center
11:19AM 41.2600 -71.6781 19° North 291 335 8,000 -1,560 Descending Boston Center
11:20AM 41.3389 -71.6467 17° North 271 312 6,300 -1,440 Descending Boston Center
11:21AM 41.4094 -71.6153 18° North 267 307 5,100 -1,140 Descending Boston Center
11:22AM 41.4822 -71.5839 18° North 269 310 4,100 -1,020 Descending Boston Center